Terminal Aerodrome Forecast
Issued by NWS Shreveport, LA

Home | Current Version | Previous Version | Text Only | Print | Product List | Glossary On
Versions: 1 2 3 4 5 6 7 8 9 10 11 12
169
FTUS44 KSHV 120540
TAFLFK
TAF
KLFK 120540Z 1206/1306 19006KT P6SM SKC
      TEMPO 1211/1215 4SM BR BKN005
     FM121500 30005KT P6SM SCT250
     FM130000 05005KT P6SM FEW250=

USA.gov is the U.S. government's official web portal to all federal, state and local government web resources and services.